createdAt,value
2023-01-29T00:03:01.806Z,32.80
2023-01-29T00:09:04.187Z,30.13
2023-01-29T00:15:07.300Z,26.37
2023-01-29T00:21:21.934Z,30.00
2023-01-29T00:27:24.257Z,31.43
2023-01-29T00:33:31.734Z,28.67
2023-01-29T00:39:47.846Z,30.10
2023-01-29T00:45:50.725Z,32.63
2023-01-29T00:52:13.256Z,32.23
2023-01-29T00:58:22.848Z,29.57
2023-01-29T01:04:30.181Z,32.07
2023-01-29T01:10:34.716Z,35.93
2023-01-29T01:16:37.288Z,34.87
2023-01-29T01:22:40.664Z,28.50
2023-01-29T01:28:45.659Z,32.50
2023-01-29T01:34:49.622Z,28.13
2023-01-29T01:40:53.048Z,27.03
2023-01-29T01:46:58.507Z,27.40
2023-01-29T01:53:11.017Z,26.77
2023-01-29T01:59:21.474Z,25.77
2023-01-29T02:05:44.019Z,28.13
2023-01-29T02:11:46.503Z,31.07
2023-01-29T02:17:55.840Z,25.73
2023-01-29T02:24:04.579Z,29.47
2023-01-29T02:30:16.365Z,27.90
2023-01-29T02:36:52.528Z,26.07
2023-01-29T02:42:59.042Z,29.40
2023-01-29T02:49:36.389Z,29.70
2023-01-29T02:55:55.161Z,27.47
2023-01-29T03:02:09.686Z,35.00
2023-01-29T03:08:21.156Z,28.37
2023-01-29T03:14:51.739Z,25.87
2023-01-29T03:21:09.218Z,30.67
2023-01-29T03:27:33.836Z,26.93
2023-01-29T03:33:52.362Z,32.47
2023-01-29T03:39:55.788Z,30.73
2023-01-29T03:46:09.359Z,32.53
2023-01-29T03:52:17.776Z,29.53
2023-01-29T03:58:44.322Z,31.03
2023-01-29T04:04:58.876Z,29.97
2023-01-29T04:11:09.381Z,30.53
2023-01-29T04:17:25.920Z,30.97
2023-01-29T04:23:28.318Z,28.63
2023-01-29T04:29:43.824Z,30.17
2023-01-29T04:36:32.467Z,26.03
2023-01-29T04:43:02.071Z,33.07
2023-01-29T04:49:19.707Z,28.70
2023-01-29T04:55:46.357Z,33.17
2023-01-29T05:01:51.617Z,30.33
2023-01-29T05:07:58.035Z,30.47
2023-01-29T05:14:03.532Z,27.93
2023-01-29T05:20:13.410Z,35.63
2023-01-29T05:26:34.607Z,31.37
2023-01-29T05:32:41.249Z,33.00
2023-01-29T05:38:43.525Z,33.73
2023-01-29T05:44:45.975Z,30.37
2023-01-29T05:50:49.184Z,26.43
2023-01-29T05:56:53.908Z,29.07
2023-01-29T06:02:59.429Z,27.53
2023-01-29T06:09:02.843Z,28.20
2023-01-29T06:15:05.301Z,30.83
2023-01-29T06:21:21.837Z,25.67
2023-01-29T06:27:25.288Z,29.20
2023-01-29T06:33:27.757Z,27.93
2023-01-29T06:39:29.939Z,26.13
2023-01-29T06:45:33.729Z,23.90
2023-01-29T06:51:40.642Z,21.80
2023-01-29T06:57:43.651Z,28.30
2023-01-29T07:03:46.104Z,24.40
2023-01-29T07:09:48.575Z,27.27
2023-01-29T07:15:51.012Z,23.83
2023-01-29T07:21:53.575Z,24.37
2023-01-29T07:28:00.890Z,21.70
2023-01-29T07:34:10.120Z,17.87
2023-01-29T07:40:19.971Z,22.80
2023-01-29T07:46:22.399Z,20.53
2023-01-29T07:52:24.871Z,17.87
2023-01-29T07:58:30.317Z,19.57
2023-01-29T08:04:32.815Z,20.87
2023-01-29T08:10:40.314Z,18.50
2023-01-29T08:16:42.856Z,25.07
2023-01-29T08:22:45.292Z,22.63
2023-01-29T08:28:50.731Z,22.30
2023-01-29T08:34:58.100Z,20.67
2023-01-29T08:41:02.691Z,21.17
2023-01-29T08:47:05.132Z,23.47
2023-01-29T08:53:09.648Z,23.13
2023-01-29T08:59:12.067Z,23.60
2023-01-29T09:05:15.104Z,26.20
2023-01-29T09:11:21.973Z,27.17
2023-01-29T09:17:24.465Z,30.47
2023-01-29T09:23:28.955Z,28.00
2023-01-29T09:29:31.433Z,23.80
2023-01-29T09:35:34.868Z,29.37
2023-01-29T09:41:45.351Z,29.37
2023-01-29T09:48:00.845Z,25.87
2023-01-29T09:54:31.464Z,28.87
2023-01-29T10:01:19.158Z,27.63
2023-01-29T10:08:00.739Z,25.97
2023-01-29T10:14:04.914Z,31.30
2023-01-29T10:20:25.761Z,30.47
2023-01-29T10:26:30.268Z,26.43
2023-01-29T10:32:33.666Z,26.00
2023-01-29T10:38:47.207Z,33.97
2023-01-29T10:45:09.721Z,26.30
2023-01-29T10:51:20.598Z,22.53
2023-01-29T10:57:42.764Z,26.10
2023-01-29T11:03:56.671Z,26.40
2023-01-29T11:10:08.743Z,23.33
2023-01-29T11:16:12.200Z,19.80
2023-01-29T11:22:25.696Z,21.73
2023-01-29T11:28:42.210Z,19.83
2023-01-29T11:35:05.758Z,17.87
2023-01-29T11:41:23.275Z,21.77
2023-01-29T11:47:30.766Z,20.93
2023-01-29T11:53:37.835Z,21.20
2023-01-29T11:59:50.725Z,23.73
2023-01-29T12:06:30.322Z,21.03
2023-01-29T12:12:43.833Z,19.87
2023-01-29T12:19:21.938Z,22.97
2023-01-29T12:25:40.021Z,21.40
2023-01-29T12:32:03.906Z,20.53
2023-01-29T12:38:28.094Z,21.83
2023-01-29T12:44:49.099Z,16.10
2023-01-29T12:50:55.061Z,18.13
2023-01-29T12:57:03.558Z,18.87
2023-01-29T13:03:31.901Z,18.53
2023-01-29T13:09:41.287Z,22.10
2023-01-29T13:15:45.055Z,22.43
2023-01-29T13:21:50.535Z,28.17
2023-01-29T13:27:52.987Z,24.70
2023-01-29T13:34:13.522Z,24.10
2023-01-29T13:40:27.036Z,38.53
2023-01-29T13:46:32.497Z,60.60
2023-01-29T13:52:34.955Z,26.13
2023-01-29T13:58:46.445Z,29.80
2023-01-29T14:04:48.890Z,30.07
2023-01-29T14:11:16.400Z,26.20
2023-01-29T14:17:20.934Z,29.07
2023-01-29T14:23:40.533Z,22.07
2023-01-29T14:29:43.927Z,27.20
2023-01-29T14:35:53.303Z,28.30
2023-01-29T14:42:01.075Z,22.73
2023-01-29T14:48:43.328Z,20.60
2023-01-29T14:54:50.017Z,15.07
2023-01-29T15:00:57.439Z,15.10
2023-01-29T15:07:12.987Z,15.27
2023-01-29T15:13:31.491Z,21.03
2023-01-29T15:19:47.017Z,12.33
2023-01-29T15:25:53.503Z,13.57
2023-01-29T15:32:00.054Z,13.20
2023-01-29T15:38:10.151Z,11.93
2023-01-29T15:44:19.963Z,12.97
2023-01-29T15:50:24.816Z,13.47
2023-01-29T15:56:41.347Z,18.30
2023-01-29T16:02:46.458Z,14.53
2023-01-29T16:08:52.889Z,16.53
2023-01-29T16:14:57.404Z,13.60
2023-01-29T16:21:06.876Z,16.90
2023-01-29T16:27:14.404Z,14.63
2023-01-29T16:33:17.976Z,17.83
2023-01-29T16:39:31.340Z,13.93
2023-01-29T16:45:33.867Z,15.03
2023-01-29T16:51:40.351Z,19.77
2023-01-29T16:57:44.775Z,14.57
2023-01-29T17:03:57.289Z,25.50
2023-01-29T17:10:05.751Z,23.40
2023-01-29T17:16:26.335Z,22.00
2023-01-29T17:22:28.750Z,15.53
2023-01-29T17:28:34.195Z,17.30
2023-01-29T17:34:36.696Z,18.27
2023-01-29T17:40:49.112Z,21.53
2023-01-29T17:46:53.655Z,18.50
2023-01-29T17:53:06.534Z,21.20
2023-01-29T17:59:22.929Z,29.03
2023-01-29T18:05:26.091Z,22.77
2023-01-29T18:11:33.616Z,23.53
2023-01-29T18:17:36.059Z,21.10
2023-01-29T18:23:38.548Z,23.40
2023-01-29T18:29:42.002Z,23.37
2023-01-29T18:36:15.534Z,23.70
2023-01-29T18:42:18.037Z,28.97
2023-01-29T18:48:22.991Z,23.03
2023-01-29T18:54:25.955Z,21.10
2023-01-29T19:00:28.396Z,18.50
2023-01-29T19:06:37.102Z,19.37
2023-01-29T19:12:46.424Z,18.27
2023-01-29T19:18:53.228Z,23.50
2023-01-29T19:24:56.319Z,18.50
2023-01-29T19:30:59.922Z,20.50
2023-01-29T19:37:05.268Z,18.27
2023-01-29T19:43:07.789Z,19.57
2023-01-29T19:49:11.229Z,19.53
2023-01-29T19:55:13.719Z,16.17
2023-01-29T20:01:18.172Z,20.67
2023-01-29T20:07:20.049Z,22.33
2023-01-29T20:13:25.173Z,22.53
2023-01-29T20:19:28.629Z,24.60
2023-01-29T20:25:32.123Z,23.30
2023-01-29T20:31:39.015Z,21.63
2023-01-29T20:37:43.375Z,23.07
2023-01-29T20:43:46.543Z,25.17
2023-01-29T20:49:51.844Z,20.27
2023-01-29T20:56:05.605Z,33.77
2023-01-29T21:02:13.959Z,29.63
2023-01-29T21:08:16.478Z,21.30
2023-01-29T21:14:25.092Z,21.10
2023-01-29T21:20:27.469Z,21.17
2023-01-29T21:26:29.927Z,21.40
2023-01-29T21:32:32.341Z,22.93
2023-01-29T21:38:34.818Z,20.87
2023-01-29T21:44:39.270Z,21.77
2023-01-29T21:50:45.530Z,21.40
2023-01-29T21:56:48.196Z,19.07
2023-01-29T22:02:53.631Z,17.00
2023-01-29T22:08:56.148Z,20.30
2023-01-29T22:14:59.934Z,16.67
2023-01-29T22:21:05.035Z,17.83
2023-01-29T22:27:07.511Z,26.37
2023-01-29T22:33:10.944Z,21.33
2023-01-29T22:39:17.407Z,23.30
2023-01-29T22:45:19.877Z,26.13
2023-01-29T22:51:22.359Z,27.97
2023-01-29T22:57:24.782Z,37.13
2023-01-29T23:03:27.272Z,37.37
2023-01-29T23:09:29.694Z,31.90
2023-01-29T23:15:32.141Z,27.23
2023-01-29T23:21:34.597Z,25.53
2023-01-29T23:27:36.636Z,23.63
2023-01-29T23:33:39.554Z,23.13
2023-01-29T23:39:43.599Z,24.67
2023-01-29T23:45:47.479Z,31.53
2023-01-29T23:51:51.993Z,29.60
2023-01-29T23:57:58.423Z,22.77
